Time;durP1;ratioP1;P1;durP2;ratioP2;P2;SDS_P1;SDS_P2;PMS_P1;PMS_P2;Temp;Humidity;BMP_temperature;BMP_pressure;BME280_temperature;BME280_humidity;BME280_pressure;Samples;Min_cycle;Max_cycle;Signal;HPM_P1;HPM_P2
2023/12/08 00:02:13;;;;;;;28.10;20.33;;;0.90;20.50;;;;;;5074855;28;20506;-55
2023/12/08 00:04:39;;;;;;;35.20;19.47;;;0.90;20.40;;;;;;5075489;28;20518;-55
2023/12/08 00:07:06;;;;;;;41.23;20.30;;;0.90;20.70;;;;;;5077402;28;20930;-56
2023/12/08 00:09:34;;;;;;;26.30;17.83;;;0.90;20.70;;;;;;5073605;28;20495;-54
2023/12/08 00:12:01;;;;;;;24.80;19.23;;;0.90;20.60;;;;;;5069615;28;20483;-55
2023/12/08 00:14:28;;;;;;;29.60;18.13;;;0.90;20.80;;;;;;5065570;28;20473;-57
2023/12/08 00:16:54;;;;;;;23.00;17.43;;;0.90;20.80;;;;;;5067544;28;20440;-55
2023/12/08 00:19:21;;;;;;;27.70;18.40;;;0.90;20.70;;;;;;5076334;28;20485;-55
2023/12/08 00:21:47;;;;;;;29.67;17.47;;;0.90;20.60;;;;;;5075002;28;20445;-56
2023/12/08 00:24:14;;;;;;;31.37;20.60;;;0.80;20.60;;;;;;5076428;28;20448;-55
2023/12/08 00:26:42;;;;;;;33.23;20.30;;;0.90;20.80;;;;;;5076369;28;20519;-56
2023/12/08 00:29:09;;;;;;;29.00;19.83;;;0.90;20.70;;;;;;5065564;28;20498;-56
2023/12/08 00:31:35;;;;;;;31.40;21.70;;;0.90;20.80;;;;;;5063030;28;20461;-55
2023/12/08 00:34:02;;;;;;;36.63;21.10;;;0.90;20.50;;;;;;5076243;28;20473;-56
2023/12/08 00:36:28;;;;;;;30.20;21.37;;;0.90;20.50;;;;;;5066521;28;20449;-56
2023/12/08 00:38:55;;;;;;;35.00;21.97;;;0.90;20.50;;;;;;5070254;28;20496;-55
2023/12/08 00:41:22;;;;;;;40.03;21.70;;;0.90;20.50;;;;;;5074566;28;20502;-55
2023/12/08 00:43:50;;;;;;;39.17;23.10;;;0.90;20.70;;;;;;5073439;28;20486;-55
2023/12/08 00:46:17;;;;;;;30.70;22.03;;;0.90;20.50;;;;;;5069967;28;20481;-55
2023/12/08 00:48:44;;;;;;;29.70;20.50;;;0.90;20.30;;;;;;5068630;28;21006;-56
2023/12/08 00:51:13;;;;;;;32.03;19.10;;;0.90;20.20;;;;;;5071039;28;20487;-55
2023/12/08 00:53:39;;;;;;;36.47;21.70;;;0.90;20.40;;;;;;5065716;28;20457;-56
2023/12/08 00:56:07;;;;;;;36.17;21.97;;;0.90;20.20;;;;;;5070958;28;20494;-55
2023/12/08 00:58:34;;;;;;;33.20;22.80;;;0.90;20.10;;;;;;5074268;28;20499;-55
2023/12/08 01:01:02;;;;;;;35.67;21.70;;;1.00;20.30;;;;;;5067807;28;20449;-55
2023/12/08 01:03:28;;;;;;;29.20;21.37;;;0.90;20.00;;;;;;5074922;28;20488;-55
2023/12/08 01:05:55;;;;;;;31.70;22.30;;;0.90;20.10;;;;;;5082383;28;20476;-55
2023/12/08 01:08:21;;;;;;;35.67;21.60;;;0.90;20.00;;;;;;5084323;22;20546;-57
2023/12/08 01:10:48;;;;;;;30.50;21.40;;;1.00;72.00;;;;;;5077177;28;20494;-57
2023/12/08 01:13:14;;;;;;;33.90;21.90;;;1.00;72.10;;;;;;5076581;28;20483;-58
2023/12/08 01:15:41;;;;;;;45.07;23.63;;;1.00;75.30;;;;;;5071721;28;20880;-56
2023/12/08 01:18:09;;;;;;;48.53;24.07;;;1.00;74.60;;;;;;5059464;28;20579;-56
2023/12/08 01:20:36;;;;;;;41.10;24.23;;;1.00;75.00;;;;;;5058707;28;20447;-56
2023/12/08 01:23:02;;;;;;;32.37;22.80;;;1.00;74.20;;;;;;5061166;28;20950;-57
2023/12/08 01:25:29;;;;;;;42.57;26.00;;;1.00;72.50;;;;;;5056929;28;20493;-57
2023/12/08 01:27:56;;;;;;;38.60;24.27;;;1.00;76.50;;;;;;5063727;28;20514;-56
2023/12/08 01:30:23;;;;;;;35.30;24.10;;;1.00;76.60;;;;;;5054838;28;20462;-56
2023/12/08 01:32:49;;;;;;;35.73;24.90;;;1.00;77.00;;;;;;5061728;28;20445;-56
2023/12/08 01:35:17;;;;;;;41.93;26.27;;;1.00;74.70;;;;;;5055838;28;20504;-57
2023/12/08 01:37:44;;;;;;;36.87;24.50;;;1.00;74.00;;;;;;5062947;28;20520;-56
2023/12/08 01:40:11;;;;;;;48.57;22.67;;;1.00;77.90;;;;;;5054360;28;20493;-58
2023/12/08 01:42:38;;;;;;;52.63;23.60;;;1.00;77.40;;;;;;5062659;28;20437;-58
2023/12/08 01:45:06;;;;;;;40.63;22.60;;;1.00;77.00;;;;;;5059471;28;20438;-58
2023/12/08 01:47:33;;;;;;;36.70;21.70;;;1.10;74.60;;;;;;5057053;28;20490;-57
2023/12/08 01:49:59;;;;;;;42.80;24.77;;;1.10;79.50;;;;;;5059790;28;20461;-58
2023/12/08 01:52:28;;;;;;;42.40;22.90;;;1.10;78.20;;;;;;5057164;28;20524;-56
2023/12/08 01:54:57;;;;;;;36.63;24.63;;;1.00;78.50;;;;;;5067638;28;20437;-57
2023/12/08 01:57:24;;;;;;;44.13;24.70;;;1.10;80.20;;;;;;5054523;28;20495;-57
2023/12/08 01:59:52;;;;;;;40.93;25.10;;;1.10;77.10;;;;;;5059947;28;20496;-56
2023/12/08 02:02:19;;;;;;;33.80;22.93;;;1.10;77.50;;;;;;5056050;28;21037;-56
2023/12/08 02:04:48;;;;;;;37.23;23.17;;;1.00;77.10;;;;;;5056008;28;20527;-57
2023/12/08 02:07:15;;;;;;;40.10;24.80;;;1.10;79.50;;;;;;5065723;28;20584;-56
2023/12/08 02:09:43;;;;;;;40.53;26.07;;;1.00;79.00;;;;;;5054106;28;20501;-57
2023/12/08 02:12:10;;;;;;;33.80;23.30;;;1.10;78.90;;;;;;5054681;28;20528;-56
2023/12/08 02:14:37;;;;;;;40.13;26.17;;;1.10;78.30;;;;;;5053849;28;20495;-58
2023/12/08 02:17:10;;;;;;;37.07;25.03;;;1.10;82.00;;;;;;5058357;28;20466;-56
2023/12/08 02:19:37;;;;;;;37.93;24.60;;;1.10;80.30;;;;;;5055897;28;20473;-56
2023/12/08 02:22:05;;;;;;;41.90;23.93;;;1.10;78.90;;;;;;5055253;28;20478;-57
2023/12/08 02:24:33;;;;;;;36.67;23.47;;;1.10;83.10;;;;;;5065270;28;20504;-57
2023/12/08 02:27:00;;;;;;;38.53;23.40;;;1.10;83.70;;;;;;5065482;28;20531;-57
2023/12/08 02:29:26;;;;;;;34.40;22.73;;;1.10;81.70;;;;;;5062318;28;20509;-56
2023/12/08 02:31:59;;;;;;;32.10;21.70;;;1.10;83.00;;;;;;5058717;28;20473;-57
2023/12/08 02:34:28;;;;;;;33.37;21.80;;;1.10;84.40;;;;;;5057574;28;20489;-56
2023/12/08 02:36:55;;;;;;;34.70;22.87;;;1.10;86.40;;;;;;5054971;28;20454;-55
2023/12/08 02:39:23;;;;;;;33.40;22.80;;;1.10;95.90;;;;;;5054375;28;20538;-58
2023/12/08 02:41:51;;;;;;;34.50;21.97;;;1.10;86.80;;;;;;5054163;28;20442;-57
2023/12/08 02:44:18;;;;;;;40.27;22.97;;;1.10;85.60;;;;;;5057313;28;20466;-55
2023/12/08 02:46:45;;;;;;;34.03;21.83;;;1.10;84.40;;;;;;5056979;28;21030;-56
2023/12/08 02:49:11;;;;;;;36.07;22.93;;;1.10;83.40;;;;;;5054641;28;20983;-57
2023/12/08 02:51:38;;;;;;;38.80;24.33;;;1.10;83.70;;;;;;5053093;28;20489;-56
2023/12/08 02:54:04;;;;;;;36.70;23.70;;;1.10;87.40;;;;;;5052632;28;20466;-56
2023/12/08 02:56:31;;;;;;;38.97;22.80;;;1.10;85.90;;;;;;5055759;28;20460;-55
2023/12/08 02:58:59;;;;;;;36.13;22.70;;;1.10;86.10;;;;;;5056525;28;21206;-57
2023/12/08 03:01:26;;;;;;;33.53;21.47;;;1.10;86.60;;;;;;5060394;28;20998;-57
2023/12/08 03:03:52;;;;;;;33.73;22.00;;;1.10;88.60;;;;;;5058704;28;20465;-57
2023/12/08 03:06:19;;;;;;;33.83;22.70;;;1.10;86.40;;;;;;5051857;28;20505;-55
2023/12/08 03:08:46;;;;;;;33.90;20.30;;;1.10;85.90;;;;;;5055426;28;20524;-56
2023/12/08 03:11:12;;;;;;;30.63;20.00;;;1.10;89.10;;;;;;5057018;28;20473;-56
2023/12/08 03:13:39;;;;;;;30.27;20.83;;;1.10;87.30;;;;;;5059019;28;20445;-57
2023/12/08 03:16:08;;;;;;;28.87;19.90;;;1.10;88.00;;;;;;5051969;28;20535;-57
2023/12/08 03:18:35;;;;;;;33.30;22.20;;;1.20;88.00;;;;;;5053482;28;20485;-56
2023/12/08 03:21:01;;;;;;;32.33;20.97;;;1.20;90.50;;;;;;5059184;28;20536;-57
2023/12/08 03:23:28;;;;;;;37.03;22.30;;;1.20;89.60;;;;;;5056469;28;20501;-56
2023/12/08 03:25:54;;;;;;;28.20;18.70;;;1.20;92.70;;;;;;5057650;28;20500;-57
2023/12/08 03:28:21;;;;;;;30.80;20.50;;;1.10;92.50;;;;;;5056764;28;20493;-56
2023/12/08 03:30:47;;;;;;;32.70;20.63;;;1.20;92.60;;;;;;5058302;28;20442;-57
2023/12/08 03:33:14;;;;;;;30.03;20.50;;;1.20;91.10;;;;;;5054841;28;20527;-56
2023/12/08 03:35:40;;;;;;;30.47;20.30;;;1.20;92.20;;;;;;5052865;28;20727;-55
2023/12/08 03:38:07;;;;;;;32.53;21.27;;;1.10;93.30;;;;;;5052152;28;20508;-56
2023/12/08 03:40:33;;;;;;;34.33;20.33;;;1.20;92.90;;;;;;5052731;28;20234;-57
2023/12/08 03:43:00;;;;;;;31.93;21.63;;;1.20;92.70;;;;;;5055568;28;20485;-57
2023/12/08 03:45:26;;;;;;;35.60;21.50;;;1.10;93.80;;;;;;5061416;28;20504;-58
2023/12/08 03:47:53;;;;;;;34.43;21.70;;;1.20;93.00;;;;;;5053318;28;20490;-58
2023/12/08 03:50:21;;;;;;;31.07;21.27;;;1.10;94.40;;;;;;5055041;28;20466;-56
2023/12/08 03:52:52;;;;;;;32.17;20.67;;;1.20;93.80;;;;;;5058509;28;20470;-56
2023/12/08 03:55:19;;;;;;;37.90;23.67;;;1.20;92.50;;;;;;5057696;28;20449;-57
2023/12/08 03:57:46;;;;;;;38.07;23.50;;;1.20;92.90;;;;;;5060401;28;20500;-57
2023/12/08 04:00:13;;;;;;;36.23;24.17;;;1.20;92.90;;;;;;5063633;28;20445;-57
2023/12/08 04:02:40;;;;;;;36.20;22.97;;;1.30;95.40;;;;;;5062805;28;20433;-57
2023/12/08 04:05:07;;;;;;;35.57;23.27;;;1.20;96.20;;;;;;5060616;28;20966;-57
2023/12/08 04:07:35;;;;;;;34.53;22.03;;;1.30;95.50;;;;;;5063294;28;20507;-57
2023/12/08 04:10:01;;;;;;;39.77;24.10;;;1.20;96.70;;;;;;5060401;28;20480;-56
2023/12/08 04:12:28;;;;;;;36.80;22.83;;;1.20;94.40;;;;;;5056003;28;20478;-57
2023/12/08 04:14:54;;;;;;;38.63;25.23;;;1.20;94.30;;;;;;5056399;28;20997;-57
2023/12/08 04:17:21;;;;;;;38.20;23.20;;;1.20;93.80;;;;;;5057928;28;20971;-56
2023/12/08 04:19:48;;;;;;;40.87;24.40;;;1.30;95.30;;;;;;5058442;28;20522;-57
2023/12/08 04:22:14;;;;;;;35.80;23.40;;;1.30;96.10;;;;;;5059508;28;20488;-57
2023/12/08 04:24:42;;;;;;;36.80;23.73;;;1.30;96.00;;;;;;5052753;28;20462;-57
2023/12/08 04:27:09;;;;;;;34.80;23.67;;;1.30;97.10;;;;;;5057823;28;20513;-56
2023/12/08 04:29:35;;;;;;;38.50;23.13;;;1.30;97.40;;;;;;5062744;28;20505;-57
2023/12/08 04:32:02;;;;;;;36.77;22.23;;;1.30;96.60;;;;;;5053380;28;20493;-56
2023/12/08 04:34:28;;;;;;;37.90;23.07;;;1.30;95.70;;;;;;5054198;28;20461;-56
2023/12/08 04:36:55;;;;;;;38.90;23.97;;;1.30;96.00;;;;;;5062111;28;21110;-56
2023/12/08 04:39:21;;;;;;;42.47;25.37;;;1.30;96.50;;;;;;5054095;28;20913;-57
2023/12/08 04:41:49;;;;;;;41.10;24.53;;;1.30;96.60;;;;;;5055798;28;20496;-56
2023/12/08 04:44:16;;;;;;;41.20;24.07;;;1.30;97.50;;;;;;5056393;28;20504;-56
2023/12/08 04:46:43;;;;;;;43.60;25.13;;;1.30;96.80;;;;;;5057629;28;20563;-55
2023/12/08 04:49:09;;;;;;;36.77;24.23;;;1.30;97.50;;;;;;5061822;28;20503;-57
2023/12/08 04:51:39;;;;;;;36.37;22.90;;;1.30;97.10;;;;;;5060564;28;20537;-56
2023/12/08 04:54:05;;;;;;;35.90;25.23;;;1.30;97.30;;;;;;5056821;28;20461;-58
2023/12/08 04:56:32;;;;;;;42.40;27.30;;;1.40;97.50;;;;;;5057996;28;20462;-55
2023/12/08 04:59:00;;;;;;;39.30;24.80;;;1.40;98.50;;;;;;5057230;28;20562;-55
2023/12/08 05:01:26;;;;;;;39.33;25.70;;;1.40;98.20;;;;;;5057923;28;20486;-55
2023/12/08 05:03:53;;;;;;;44.50;27.20;;;1.40;98.10;;;;;;5057240;28;20467;-54
2023/12/08 05:06:22;;;;;;;42.20;25.90;;;1.40;97.10;;;;;;5061770;28;20460;-56
2023/12/08 05:08:48;;;;;;;42.80;26.43;;;1.40;95.00;;;;;;5055791;28;20543;-55
2023/12/08 05:11:15;;;;;;;41.30;25.77;;;1.40;95.70;;;;;;5062894;28;20831;-56
2023/12/08 05:13:41;;;;;;;43.90;26.40;;;1.40;96.10;;;;;;5059369;28;21015;-54
2023/12/08 05:16:11;;;;;;;41.00;25.90;;;1.40;96.90;;;;;;5060886;28;20497;-56
2023/12/08 05:18:37;;;;;;;43.03;26.37;;;1.50;98.90;;;;;;5058309;28;20562;-54
2023/12/08 05:21:04;;;;;;;39.83;25.87;;;1.40;99.30;;;;;;5055492;28;20461;-54
2023/12/08 05:23:31;;;;;;;38.80;26.30;;;1.40;99.40;;;;;;5059019;28;20514;-55
2023/12/08 05:25:58;;;;;;;39.47;24.80;;;1.40;98.50;;;;;;5057316;28;21000;-55
2023/12/08 05:28:25;;;;;;;44.20;27.23;;;1.40;96.90;;;;;;5053846;28;20499;-56
2023/12/08 05:30:53;;;;;;;41.63;27.33;;;1.50;97.60;;;;;;5061744;28;20465;-56
2023/12/08 05:33:21;;;;;;;40.67;25.83;;;1.40;97.90;;;;;;5051351;28;20489;-56
2023/12/08 05:35:47;;;;;;;38.50;25.27;;;1.40;97.40;;;;;;5048902;28;20493;-55
2023/12/08 05:38:14;;;;;;;43.07;26.23;;;1.40;91.50;;;;;;5054509;28;20517;-55
2023/12/08 05:40:40;;;;;;;43.93;27.07;;;1.40;93.80;;;;;;5052673;28;20520;-55
2023/12/08 05:43:07;;;;;;;38.43;24.50;;;1.50;93.50;;;;;;5053171;28;20490;-55
2023/12/08 05:45:33;;;;;;;37.83;24.20;;;1.50;94.70;;;;;;5052218;28;21025;-55
2023/12/08 05:48:00;;;;;;;36.53;23.80;;;1.50;93.80;;;;;;5056667;28;20513;-55
2023/12/08 05:50:28;;;;;;;36.70;25.10;;;1.50;93.40;;;;;;5053051;28;20947;-55
2023/12/08 05:52:54;;;;;;;40.17;26.17;;;1.50;93.60;;;;;;5049797;28;20489;-56
2023/12/08 05:55:21;;;;;;;36.73;23.40;;;1.50;90.30;;;;;;5054435;28;20485;-56
2023/12/08 05:57:48;;;;;;;37.23;23.60;;;1.40;88.00;;;;;;5055115;28;20563;-56
2023/12/08 06:00:17;;;;;;;34.43;24.20;;;1.50;86.70;;;;;;5054262;28;20490;-55
2023/12/08 06:02:44;;;;;;;38.53;24.33;;;1.50;81.80;;;;;;5055615;28;20469;-55
2023/12/08 06:05:12;;;;;;;35.80;23.33;;;1.40;85.30;;;;;;5053916;28;20485;-55
2023/12/08 06:07:40;;;;;;;31.50;22.63;;;1.40;83.30;;;;;;5054404;28;20500;-55
2023/12/08 06:10:08;;;;;;;32.30;23.70;;;1.40;82.30;;;;;;5052570;28;20485;-56
2023/12/08 06:12:35;;;;;;;37.50;25.57;;;1.40;80.90;;;;;;5052512;28;20932;-56
2023/12/08 06:15:01;;;;;;;36.77;25.10;;;1.40;79.30;;;;;;5054809;28;20458;-55
2023/12/08 06:17:28;;;;;;;39.13;27.27;;;1.40;78.40;;;;;;5053973;28;20446;-55
2023/12/08 06:19:55;;;;;;;37.63;26.07;;;1.40;75.30;;;;;;5057577;28;20514;-56
2023/12/08 06:22:21;;;;;;;36.13;25.03;;;1.40;74.00;;;;;;5057549;28;20527;-55
2023/12/08 06:24:49;;;;;;;37.90;27.27;;;1.30;72.40;;;;;;5058752;28;20604;-55
2023/12/08 06:27:16;;;;;;;36.00;25.20;;;1.30;20.20;;;;;;5060589;28;20478;-55
2023/12/08 06:29:43;;;;;;;40.77;27.97;;;1.30;20.40;;;;;;5059338;28;20535;-55
2023/12/08 06:32:10;;;;;;;36.87;26.27;;;1.20;20.50;;;;;;5059120;28;20959;-56
2023/12/08 06:34:36;;;;;;;36.20;26.60;;;1.20;21.20;;;;;;5056280;28;20868;-56
2023/12/08 06:37:03;;;;;;;42.70;28.73;;;1.20;20.70;;;;;;5061463;28;21020;-58
2023/12/08 06:39:29;;;;;;;34.57;24.70;;;1.10;20.80;;;;;;5054484;28;20530;-55
2023/12/08 06:41:57;;;;;;;34.47;23.60;;;1.10;20.50;;;;;;5056188;28;20480;-55
2023/12/08 06:44:24;;;;;;;37.57;26.50;;;1.00;20.90;;;;;;5050120;28;20446;-56
2023/12/08 06:46:50;;;;;;;33.00;24.60;;;1.10;20.50;;;;;;5054869;28;20906;-55
2023/12/08 06:49:17;;;;;;;38.57;26.70;;;1.10;20.10;;;;;;5056707;28;21083;-56
2023/12/08 06:51:43;;;;;;;36.97;26.30;;;1.10;73.00;;;;;;5052298;28;20879;-55
2023/12/08 06:54:10;;;;;;;45.10;25.47;;;1.00;20.00;;;;;;5057093;28;20489;-55
2023/12/08 06:56:40;;;;;;;35.53;25.90;;;1.10;20.10;;;;;;5052267;28;20454;-55
2023/12/08 06:59:08;;;;;;;34.50;25.33;;;1.00;72.10;;;;;;5053645;28;20581;-56
2023/12/08 07:01:35;;;;;;;36.97;25.77;;;1.00;20.40;;;;;;5055439;28;20454;-55
2023/12/08 07:04:03;;;;;;;38.63;26.70;;;1.00;20.40;;;;;;5052637;28;20503;-55
2023/12/08 07:06:30;;;;;;;44.10;32.87;;;1.00;20.20;;;;;;5051831;28;22387;-55
2023/12/08 07:08:56;;;;;;;37.20;26.57;;;1.00;20.30;;;;;;5055523;28;20508;-57
2023/12/08 07:11:23;;;;;;;36.67;25.73;;;1.00;20.50;;;;;;5056818;28;20701;-58
2023/12/08 07:13:50;;;;;;;39.03;27.50;;;0.90;20.90;;;;;;5059552;28;20469;-57
2023/12/08 07:16:18;;;;;;;34.90;25.87;;;0.90;20.70;;;;;;5055823;28;20482;-58
2023/12/08 07:18:45;;;;;;;34.93;25.60;;;0.90;20.70;;;;;;5054291;28;20539;-58
2023/12/08 07:21:12;;;;;;;38.43;26.13;;;0.90;20.60;;;;;;5059751;28;20464;-58
2023/12/08 07:23:40;;;;;;;36.33;25.80;;;0.90;20.70;;;;;;5054873;28;20963;-58
2023/12/08 07:26:06;;;;;;;34.57;26.40;;;0.90;20.60;;;;;;5059959;28;20442;-57
2023/12/08 07:28:33;;;;;;;34.20;24.93;;;0.90;20.10;;;;;;5060839;28;20492;-57
2023/12/08 07:30:59;;;;;;;34.47;24.00;;;0.90;20.10;;;;;;5055075;28;20457;-57
2023/12/08 07:33:27;;;;;;;29.60;22.20;;;1.00;73.40;;;;;;5061588;28;21036;-59
2023/12/08 07:35:54;;;;;;;29.10;21.10;;;1.00;24.10;;;;;;5053888;28;20446;-57
2023/12/08 07:38:21;;;;;;;32.87;22.83;;;1.00;24.50;;;;;;5052978;28;20512;-56
2023/12/08 07:40:47;;;;;;;31.23;23.67;;;1.00;30.00;;;;;;5056014;28;20462;-58
2023/12/08 07:43:14;;;;;;;33.03;23.20;;;1.00;28.00;;;;;;5061086;28;20832;-58
2023/12/08 07:45:41;;;;;;;28.63;22.10;;;1.10;29.90;;;;;;5051815;28;20489;-57
2023/12/08 07:48:08;;;;;;;29.20;21.27;;;1.00;30.00;;;;;;5048833;28;20867;-59
2023/12/08 07:50:35;;;;;;;31.57;22.97;;;1.00;39.40;;;;;;5054260;28;20462;-58
2023/12/08 07:53:02;;;;;;;31.33;23.10;;;1.10;34.60;;;;;;5046205;28;20884;-58
2023/12/08 07:55:29;;;;;;;29.83;22.23;;;1.10;36.30;;;;;;5049650;28;20454;-58
2023/12/08 07:57:56;;;;;;;31.20;23.00;;;1.10;43.10;;;;;;5052122;28;20501;-58
2023/12/08 08:00:23;;;;;;;26.60;21.00;;;1.00;55.60;;;;;;5056592;28;20488;-58
2023/12/08 08:02:49;;;;;;;30.10;21.60;;;1.10;53.10;;;;;;5057952;28;20467;-58
2023/12/08 08:05:16;;;;;;;31.70;22.97;;;1.10;57.10;;;;;;5057085;28;20454;-58
2023/12/08 08:07:44;;;;;;;29.90;21.57;;;1.10;72.30;;;;;;5053054;28;20512;-58
2023/12/08 08:10:10;;;;;;;32.13;24.00;;;1.00;73.90;;;;;;5056778;28;20841;-58
2023/12/08 08:12:37;;;;;;;32.50;23.90;;;1.10;69.70;;;;;;5048332;28;20533;-57
2023/12/08 08:15:04;;;;;;;31.03;24.00;;;1.20;67.50;;;;;;5050475;28;20566;-58
2023/12/08 08:17:31;;;;;;;32.50;26.20;;;1.20;79.60;;;;;;5049033;28;20575;-58
2023/12/08 08:19:57;;;;;;;39.43;26.07;;;1.20;79.40;;;;;;5052133;28;20504;-58
2023/12/08 08:22:24;;;;;;;35.60;26.47;;;1.20;81.50;;;;;;5052421;28;20442;-58
2023/12/08 08:24:52;;;;;;;31.83;24.07;;;1.30;85.70;;;;;;5056300;28;20501;-58
2023/12/08 08:27:19;;;;;;;31.80;24.60;;;1.30;89.80;;;;;;5061013;28;20511;-59
2023/12/08 08:29:45;;;;;;;34.67;25.27;;;1.20;90.50;;;;;;5054352;28;20458;-56
2023/12/08 08:32:13;;;;;;;36.57;26.77;;;1.10;99.90;;;;;;5050642;28;20493;-57
2023/12/08 08:34:40;;;;;;;38.10;26.30;;;1.20;99.60;;;;;;5057066;28;20476;-58
2023/12/08 08:37:06;;;;;;;42.37;26.90;;;1.20;96.40;;;;;;5051803;28;20489;-59
2023/12/08 08:39:33;;;;;;;31.90;23.77;;;1.20;99.90;;;;;;5058051;28;20505;-58
2023/12/08 08:42:01;;;;;;;33.00;22.57;;;1.20;99.90;;;;;;5059316;28;20468;-58
2023/12/08 08:44:28;;;;;;;32.30;24.50;;;1.20;99.90;;;;;;5050260;28;20507;-62
2023/12/08 08:46:55;;;;;;;34.40;22.87;;;1.20;99.90;;;;;;5055458;28;20494;-57
